Time;durP1;ratioP1;P1;durP2;ratioP2;P2;SDS_P1;SDS_P2;PMS_P1;PMS_P2;Temp;Humidity;BMP_temperature;BMP_pressure;BME280_temperature;BME280_humidity;BME280_pressure;Samples;Min_cycle;Max_cycle;Signal;HPM_P1;HPM_P2
2023/04/29 00:01:29;;;;;;;56.05;31.55;;;9.50;99.90;;;;;;5009514;28;20063;-68
2023/04/29 00:03:55;;;;;;;50.70;30.48;;;9.50;99.90;;;;;;5026841;28;20041;-68
2023/04/29 00:06:21;;;;;;;55.88;31.10;;;9.50;99.90;;;;;;5028209;28;20065;-68
2023/04/29 00:08:47;;;;;;;54.55;30.75;;;9.50;99.90;;;;;;5027023;28;20049;-68
2023/04/29 00:11:12;;;;;;;53.30;29.63;;;9.50;99.90;;;;;;5010503;28;20041;-68
2023/04/29 00:13:39;;;;;;;57.20;29.15;;;9.40;99.90;;;;;;5046094;28;20635;-68
2023/04/29 00:16:06;;;;;;;51.47;28.20;;;9.40;99.90;;;;;;4995072;28;20060;-68
2023/04/29 00:18:32;;;;;;;48.10;26.92;;;9.30;99.90;;;;;;5011750;28;20041;-68
2023/04/29 00:20:58;;;;;;;49.97;27.15;;;9.30;99.90;;;;;;5009804;28;20289;-68
2023/04/29 00:23:24;;;;;;;56.63;29.95;;;9.20;99.90;;;;;;5011191;28;20041;-68
2023/04/29 00:25:52;;;;;;;53.13;29.52;;;9.20;99.90;;;;;;5010064;28;20491;-68
2023/04/29 00:28:18;;;;;;;53.65;30.13;;;9.20;99.90;;;;;;5026500;28;20520;-69
2023/04/29 00:30:43;;;;;;;54.17;29.00;;;9.20;99.90;;;;;;5011806;28;20053;-68
2023/04/29 00:33:09;;;;;;;61.05;31.20;;;9.10;99.90;;;;;;5010671;28;20033;-68
2023/04/29 00:35:35;;;;;;;47.65;28.05;;;9.20;99.90;;;;;;5028745;28;20068;-68
2023/04/29 00:38:00;;;;;;;54.22;29.05;;;9.20;99.90;;;;;;5010840;28;20484;-68
2023/04/29 00:40:27;;;;;;;52.85;29.58;;;9.20;99.90;;;;;;5025765;28;20470;-68
2023/04/29 00:42:53;;;;;;;55.95;28.90;;;9.10;99.90;;;;;;4983523;28;20036;-68
2023/04/29 00:45:19;;;;;;;59.85;30.17;;;9.10;99.90;;;;;;5028374;28;20059;-68
2023/04/29 00:47:45;;;;;;;60.83;31.13;;;9.10;99.90;;;;;;5011224;28;20183;-68
2023/04/29 00:50:10;;;;;;;60.92;32.83;;;9.10;99.90;;;;;;4991663;28;20541;-68
2023/04/29 00:52:38;;;;;;;72.78;33.33;;;9.10;99.90;;;;;;5007963;28;20470;-68
2023/04/29 00:55:08;;;;;;;74.93;33.65;;;9.10;99.90;;;;;;5025745;28;20041;-68
2023/04/29 00:57:34;;;;;;;75.90;35.17;;;9.10;99.90;;;;;;5026692;28;20115;-68
2023/04/29 01:00:00;;;;;;;74.47;34.60;;;9.10;99.90;;;;;;5027503;28;20033;-68
2023/04/29 01:02:27;;;;;;;76.53;35.60;;;9.10;99.90;;;;;;5028210;28;20040;-68
2023/04/29 01:04:54;;;;;;;75.05;35.65;;;9.10;99.90;;;;;;5026810;28;20061;-68
2023/04/29 01:07:33;;;;;;;77.93;36.33;;;9.10;99.90;;;;;;5026769;28;20087;-68
2023/04/29 01:10:03;;;;;;;78.88;34.80;;;9.10;99.90;;;;;;5026962;28;20131;-68
2023/04/29 01:13:00;;;;;;;75.57;35.33;;;9.10;99.90;;;;;;5024654;28;20052;-68
2023/04/29 01:15:32;;;;;;;72.70;34.13;;;9.10;99.90;;;;;;4994157;28;20516;-68
2023/04/29 01:18:23;;;;;;;71.20;33.90;;;9.00;99.90;;;;;;5027282;28;20485;-68
2023/04/29 01:20:50;;;;;;;67.03;32.75;;;9.00;99.90;;;;;;5027216;28;20087;-68
2023/04/29 01:23:16;;;;;;;72.60;34.75;;;9.00;99.90;;;;;;5015382;28;20471;-68
2023/04/29 01:25:42;;;;;;;69.63;34.53;;;9.00;99.90;;;;;;5008533;28;20038;-68
2023/04/29 01:28:20;;;;;;;61.03;32.50;;;8.90;99.90;;;;;;5012445;28;20037;-68
2023/04/29 01:31:24;;;;;;;56.75;29.80;;;8.90;99.90;;;;;;5030869;28;20091;-68
2023/04/29 01:34:03;;;;;;;55.70;28.67;;;8.90;99.90;;;;;;5016048;28;20048;-67
2023/04/29 01:37:00;;;;;;;55.35;28.92;;;8.90;99.90;;;;;;5013496;28;20043;-67
2023/04/29 01:39:56;;;;;;;52.10;27.80;;;8.80;99.90;;;;;;5029291;28;20029;-67
2023/04/29 01:42:32;;;;;;;56.33;28.15;;;8.80;99.90;;;;;;5028062;28;20060;-68
2023/04/29 01:45:04;;;;;;;58.63;28.30;;;8.80;99.90;;;;;;5014621;28;20035;-67
2023/04/29 01:47:30;;;;;;;57.08;28.58;;;8.80;99.90;;;;;;5029736;28;20041;-67
2023/04/29 01:49:56;;;;;;;57.45;26.77;;;8.80;99.90;;;;;;5013539;28;20037;-68
2023/04/29 01:52:22;;;;;;;61.28;29.40;;;8.70;99.90;;;;;;5013504;28;20390;-67
2023/04/29 01:54:48;;;;;;;57.15;29.85;;;8.80;99.90;;;;;;5014013;28;20048;-68
2023/04/29 01:57:14;;;;;;;60.17;28.27;;;8.70;99.90;;;;;;5029420;28;20037;-68
2023/04/29 01:59:40;;;;;;;54.97;28.35;;;8.70;99.90;;;;;;5014134;28;20040;-67
2023/04/29 02:02:06;;;;;;;55.63;27.90;;;8.70;99.90;;;;;;5030436;28;20044;-68
2023/04/29 02:04:33;;;;;;;59.97;28.95;;;8.70;99.90;;;;;;4996933;28;20044;-68
2023/04/29 02:06:58;;;;;;;54.10;28.20;;;8.70;99.90;;;;;;5030553;28;20607;-68
2023/04/29 02:09:24;;;;;;;56.80;28.10;;;8.70;99.90;;;;;;5014048;28;20036;-68
2023/04/29 02:11:50;;;;;;;58.47;27.77;;;8.70;99.90;;;;;;5013278;28;20041;-68
2023/04/29 02:14:16;;;;;;;61.38;28.13;;;8.70;99.90;;;;;;5030758;28;20108;-68
2023/04/29 02:16:44;;;;;;;60.80;27.90;;;8.70;99.90;;;;;;5029446;28;20033;-68
2023/04/29 02:19:10;;;;;;;53.08;28.08;;;8.70;99.90;;;;;;5010329;28;20040;-67
2023/04/29 02:21:38;;;;;;;53.17;26.33;;;8.70;99.90;;;;;;5030395;28;20040;-67
2023/04/29 02:24:05;;;;;;;55.40;27.27;;;8.70;99.90;;;;;;5014005;28;20115;-68
2023/04/29 02:26:31;;;;;;;51.95;26.90;;;8.70;99.90;;;;;;5009116;28;20075;-68
2023/04/29 02:28:57;;;;;;;56.20;25.85;;;8.70;99.90;;;;;;5013216;28;20037;-68
2023/04/29 02:31:23;;;;;;;48.35;24.42;;;8.70;99.90;;;;;;5014150;28;20043;-68
2023/04/29 02:33:49;;;;;;;46.40;25.20;;;8.70;99.90;;;;;;5000129;28;20037;-68
2023/04/29 02:36:14;;;;;;;46.15;24.30;;;8.70;99.90;;;;;;5034104;28;20044;-68
2023/04/29 02:38:40;;;;;;;50.13;25.73;;;8.70;99.90;;;;;;5000661;28;20033;-68
2023/04/29 02:41:06;;;;;;;48.05;25.75;;;8.70;99.90;;;;;;5031359;28;20048;-68
2023/04/29 02:43:32;;;;;;;49.08;25.83;;;8.70;99.90;;;;;;5029207;28;20052;-68
2023/04/29 02:45:59;;;;;;;50.67;25.08;;;8.60;99.90;;;;;;5012780;28;20233;-68
2023/04/29 02:48:24;;;;;;;43.95;25.52;;;8.60;99.90;;;;;;5030067;28;20045;-68
2023/04/29 02:50:50;;;;;;;57.75;25.73;;;8.60;99.90;;;;;;5012306;28;20095;-68
2023/04/29 02:53:16;;;;;;;52.95;26.08;;;8.60;99.90;;;;;;5013171;28;20482;-68
2023/04/29 02:55:42;;;;;;;41.78;22.55;;;8.60;99.90;;;;;;5029054;28;20120;-68
2023/04/29 02:58:08;;;;;;;50.90;25.35;;;8.60;99.90;;;;;;5028691;28;20049;-68
2023/04/29 03:00:34;;;;;;;44.35;23.17;;;8.60;99.90;;;;;;5009205;28;20037;-68
2023/04/29 03:03:00;;;;;;;45.58;22.38;;;8.60;99.90;;;;;;5029699;28;20044;-68
2023/04/29 03:05:26;;;;;;;48.13;22.73;;;8.60;99.90;;;;;;5012062;28;20498;-68
2023/04/29 03:07:52;;;;;;;42.03;22.35;;;8.60;99.90;;;;;;5029682;28;20075;-68
2023/04/29 03:10:18;;;;;;;40.03;21.92;;;8.60;99.90;;;;;;5027465;28;20460;-68
2023/04/29 03:12:43;;;;;;;40.38;21.02;;;8.60;99.90;;;;;;5028462;28;20562;-67
2023/04/29 03:15:10;;;;;;;39.65;21.85;;;8.60;99.90;;;;;;5029204;28;20349;-68
2023/04/29 03:17:36;;;;;;;44.58;22.00;;;8.50;99.90;;;;;;4996254;28;20114;-68
2023/04/29 03:20:02;;;;;;;43.80;22.60;;;8.50;99.90;;;;;;5011645;28;20044;-68
2023/04/29 03:22:28;;;;;;;41.15;23.10;;;8.60;99.90;;;;;;5028401;28;20526;-68
2023/04/29 03:24:54;;;;;;;38.78;20.75;;;8.50;99.90;;;;;;5011254;28;20120;-68
2023/04/29 03:27:19;;;;;;;45.67;21.85;;;8.60;99.90;;;;;;5029320;28;20033;-68
2023/04/29 03:29:45;;;;;;;41.03;22.75;;;8.50;99.90;;;;;;5029320;28;20044;-68
2023/04/29 03:32:11;;;;;;;41.95;21.88;;;8.50;99.90;;;;;;5012498;28;20539;-68
2023/04/29 03:34:37;;;;;;;40.75;21.02;;;8.50;99.90;;;;;;5012321;28;20432;-68
2023/04/29 03:37:02;;;;;;;44.60;22.40;;;8.50;99.90;;;;;;5013184;28;20033;-68
2023/04/29 03:39:31;;;;;;;41.78;21.65;;;8.50;99.90;;;;;;5011198;28;20048;-68
2023/04/29 03:41:58;;;;;;;43.50;23.33;;;8.50;99.90;;;;;;5028954;28;20049;-68
2023/04/29 03:44:24;;;;;;;39.72;22.73;;;8.50;99.90;;;;;;5010498;28;20483;-68
2023/04/29 03:46:50;;;;;;;40.53;21.50;;;8.50;99.90;;;;;;5029414;28;20135;-68
2023/04/29 03:49:16;;;;;;;40.70;23.38;;;8.50;99.90;;;;;;5028273;28;20048;-68
2023/04/29 03:51:44;;;;;;;42.50;21.48;;;8.50;99.90;;;;;;5027621;28;20461;-68
2023/04/29 03:54:11;;;;;;;48.20;20.92;;;8.50;99.90;;;;;;5027383;28;20037;-68
2023/04/29 03:56:36;;;;;;;43.08;20.73;;;8.50;99.90;;;;;;5010507;28;20044;-68
2023/04/29 03:59:02;;;;;;;41.63;22.20;;;8.50;99.90;;;;;;5028933;28;20048;-68
2023/04/29 04:01:28;;;;;;;39.92;20.45;;;8.50;99.90;;;;;;4990908;28;20105;-68
2023/04/29 04:03:53;;;;;;;42.67;20.35;;;8.40;99.90;;;;;;5011887;28;20041;-68
2023/04/29 04:06:20;;;;;;;35.90;20.23;;;8.40;99.90;;;;;;5027146;28;20100;-68
2023/04/29 04:08:45;;;;;;;35.92;19.40;;;8.40;99.90;;;;;;5010860;28;20060;-68
2023/04/29 04:11:13;;;;;;;31.48;17.88;;;8.40;99.90;;;;;;5012406;28;20037;-68
2023/04/29 04:13:42;;;;;;;33.28;19.83;;;8.40;99.90;;;;;;5010289;28;20064;-68
2023/04/29 04:16:09;;;;;;;41.38;20.67;;;8.40;99.90;;;;;;5011460;28;20059;-68
2023/04/29 04:18:36;;;;;;;38.83;20.10;;;8.40;99.90;;;;;;5026995;28;20041;-68
2023/04/29 04:21:09;;;;;;;37.95;18.70;;;8.30;99.90;;;;;;5026232;28;20049;-68
2023/04/29 04:23:36;;;;;;;36.47;18.48;;;8.30;99.90;;;;;;5025771;28;20596;-67
2023/04/29 04:26:02;;;;;;;39.03;18.80;;;8.30;99.90;;;;;;5027836;28;20045;-68
2023/04/29 04:28:28;;;;;;;35.17;17.98;;;8.30;99.90;;;;;;5008869;28;20037;-68
2023/04/29 04:30:54;;;;;;;32.13;17.80;;;8.30;99.90;;;;;;5027767;28;20102;-68
2023/04/29 04:33:19;;;;;;;36.13;17.52;;;8.30;99.90;;;;;;4994024;28;20911;-68
2023/04/29 04:35:45;;;;;;;37.47;17.85;;;8.30;99.90;;;;;;5026638;28;20051;-68
2023/04/29 04:38:11;;;;;;;34.03;17.48;;;8.30;99.90;;;;;;5025681;28;20036;-68
2023/04/29 04:40:40;;;;;;;32.42;17.88;;;8.30;99.90;;;;;;4993121;28;20064;-67
2023/04/29 04:43:06;;;;;;;34.55;15.77;;;8.30;99.90;;;;;;5009201;28;20309;-67
2023/04/29 04:45:32;;;;;;;34.47;16.92;;;8.30;99.90;;;;;;5026601;28;20102;-68
2023/04/29 04:47:58;;;;;;;36.03;17.20;;;8.30;99.90;;;;;;5010555;28;20037;-67
2023/04/29 04:50:24;;;;;;;30.88;15.88;;;8.30;99.90;;;;;;5025428;28;20047;-68
2023/04/29 04:52:49;;;;;;;29.08;15.25;;;8.30;99.90;;;;;;5029370;28;20047;-67
2023/04/29 04:55:15;;;;;;;31.52;16.40;;;8.20;99.90;;;;;;5016606;28;20489;-68
2023/04/29 04:57:41;;;;;;;37.15;17.67;;;8.20;99.90;;;;;;5052582;28;20041;-67
2023/04/29 05:00:07;;;;;;;39.55;17.17;;;8.30;99.90;;;;;;5034042;28;20111;-67
2023/04/29 05:02:33;;;;;;;33.95;18.20;;;8.20;99.90;;;;;;5032901;28;20033;-68
2023/04/29 05:04:59;;;;;;;39.88;17.90;;;8.20;99.90;;;;;;5031706;28;20461;-68
2023/04/29 05:07:24;;;;;;;30.55;15.65;;;8.20;99.90;;;;;;5015622;28;20044;-67
2023/04/29 05:09:50;;;;;;;36.92;17.23;;;8.30;99.90;;;;;;5016224;28;20041;-67
2023/04/29 05:12:16;;;;;;;37.33;17.55;;;8.30;99.90;;;;;;5035317;28;20080;-67
2023/04/29 05:14:41;;;;;;;27.98;15.43;;;8.20;99.90;;;;;;5018483;28;20041;-67
2023/04/29 05:17:08;;;;;;;31.98;16.25;;;8.20;99.90;;;;;;5028315;28;20132;-67
2023/04/29 05:19:34;;;;;;;30.23;15.93;;;8.30;99.90;;;;;;5016807;28;20041;-67
2023/04/29 05:22:00;;;;;;;34.33;15.95;;;8.20;99.90;;;;;;5029913;28;20082;-67
2023/04/29 05:24:26;;;;;;;35.03;15.48;;;8.30;99.90;;;;;;4997405;28;20037;-67
2023/04/29 05:26:53;;;;;;;28.73;15.63;;;8.30;99.90;;;;;;5012926;28;20041;-67
2023/04/29 05:29:18;;;;;;;34.25;15.98;;;8.30;99.90;;;;;;5030533;28;20094;-67
2023/04/29 05:31:44;;;;;;;31.73;15.02;;;8.30;99.90;;;;;;5031148;28;20041;-67
2023/04/29 05:34:10;;;;;;;32.42;15.00;;;8.30;99.90;;;;;;5011327;28;22414;-67
2023/04/29 05:36:36;;;;;;;26.77;15.25;;;8.30;99.90;;;;;;5028713;28;20033;-67
2023/04/29 05:39:01;;;;;;;31.88;15.68;;;8.30;99.90;;;;;;5030557;28;20547;-67
2023/04/29 05:41:27;;;;;;;33.28;14.18;;;8.30;99.90;;;;;;5030681;28;20063;-68
2023/04/29 05:43:53;;;;;;;27.92;14.05;;;8.30;99.90;;;;;;5014229;28;20041;-67
2023/04/29 05:46:19;;;;;;;25.13;13.57;;;8.30;99.90;;;;;;5013192;28;20037;-67
2023/04/29 05:48:45;;;;;;;27.15;14.35;;;8.40;99.90;;;;;;5014497;28;20588;-67
2023/04/29 05:51:12;;;;;;;26.80;13.73;;;8.40;99.90;;;;;;5028526;28;20112;-67
2023/04/29 05:53:39;;;;;;;26.55;13.82;;;8.40;99.90;;;;;;5030555;28;20029;-67
2023/04/29 05:56:07;;;;;;;25.77;12.98;;;8.40;99.90;;;;;;5012904;28;21142;-67
2023/04/29 05:58:33;;;;;;;30.13;14.10;;;8.40;99.90;;;;;;5029404;28;20033;-67
2023/04/29 06:01:00;;;;;;;25.70;13.15;;;8.40;99.90;;;;;;5011805;28;20037;-67
2023/04/29 06:03:26;;;;;;;28.70;13.85;;;8.40;99.90;;;;;;5029940;28;20041;-67
2023/04/29 06:05:52;;;;;;;23.98;12.85;;;8.50;99.90;;;;;;5028899;28;20061;-68
2023/04/29 06:08:19;;;;;;;28.00;14.30;;;8.40;99.90;;;;;;5027680;28;20041;-67
2023/04/29 06:10:45;;;;;;;26.80;12.95;;;8.50;99.90;;;;;;5013950;28;20037;-67
2023/04/29 06:13:11;;;;;;;22.35;12.05;;;8.50;99.90;;;;;;5013833;28;20450;-67
2023/04/29 06:15:37;;;;;;;31.58;13.73;;;8.50;99.90;;;;;;5029151;28;20033;-67
2023/04/29 06:18:03;;;;;;;26.80;12.88;;;8.60;99.90;;;;;;5029653;28;20064;-67
2023/04/29 06:20:28;;;;;;;27.55;14.68;;;8.60;99.90;;;;;;5028005;28;20043;-67
2023/04/29 06:22:54;;;;;;;27.48;14.27;;;8.60;99.90;;;;;;5030349;28;20049;-67
2023/04/29 06:25:20;;;;;;;24.42;13.30;;;8.70;99.90;;;;;;5013611;28;20501;-67
2023/04/29 06:27:46;;;;;;;29.60;13.60;;;8.70;99.90;;;;;;5029945;28;20063;-67
2023/04/29 06:30:12;;;;;;;27.23;14.15;;;8.70;99.90;;;;;;5028493;28;20048;-66
2023/04/29 06:32:41;;;;;;;26.75;13.95;;;8.80;99.90;;;;;;5028137;28;20394;-67
2023/04/29 06:35:07;;;;;;;26.05;14.27;;;8.80;99.90;;;;;;5023390;28;20033;-67
2023/04/29 06:37:33;;;;;;;34.03;14.40;;;8.90;99.90;;;;;;5009912;28;20076;-67
2023/04/29 06:39:59;;;;;;;25.38;14.25;;;8.90;99.90;;;;;;5027967;28;20080;-67
2023/04/29 06:42:24;;;;;;;24.88;13.82;;;8.90;99.90;;;;;;5032285;28;20091;-67
2023/04/29 06:44:50;;;;;;;25.23;14.60;;;8.90;99.90;;;;;;5033533;28;20041;-67
2023/04/29 06:47:16;;;;;;;29.13;15.40;;;9.00;99.90;;;;;;5012044;28;20046;-67
2023/04/29 06:49:44;;;;;;;25.73;14.25;;;9.10;99.90;;;;;;4995021;28;20068;-66
2023/04/29 06:52:10;;;;;;;28.38;13.90;;;9.10;99.90;;;;;;5015234;28;20041;-67
2023/04/29 06:54:37;;;;;;;30.27;15.10;;;9.10;99.90;;;;;;5032951;28;20126;-67
2023/04/29 06:57:03;;;;;;;25.38;14.05;;;9.10;99.90;;;;;;5033655;28;20045;-67
2023/04/29 06:59:28;;;;;;;28.05;14.65;;;9.20;99.90;;;;;;5033364;28;20503;-67
2023/04/29 07:01:54;;;;;;;31.27;15.98;;;9.30;99.90;;;;;;5032115;28;20047;-67
2023/04/29 07:04:20;;;;;;;23.73;13.93;;;9.30;99.90;;;;;;4999671;28;20064;-67
2023/04/29 07:06:47;;;;;;;29.13;15.27;;;9.40;99.90;;;;;;5000504;28;20057;-67
2023/04/29 07:09:13;;;;;;;25.25;14.45;;;9.50;99.90;;;;;;5032782;28;20033;-67
2023/04/29 07:11:39;;;;;;;22.88;13.93;;;9.70;99.90;;;;;;5033064;28;20053;-67
2023/04/29 07:14:06;;;;;;;22.65;13.27;;;9.70;99.90;;;;;;5032854;28;20079;-67
2023/04/29 07:16:32;;;;;;;22.85;12.40;;;9.80;99.90;;;;;;5016447;28;20063;-66
2023/04/29 07:18:58;;;;;;;23.90;12.68;;;10.00;99.90;;;;;;5033203;28;20041;-66
2023/04/29 07:21:24;;;;;;;19.10;12.48;;;10.10;99.90;;;;;;5031531;28;20120;-66
2023/04/29 07:23:49;;;;;;;22.48;12.52;;;10.30;99.90;;;;;;5017106;28;20115;-66
2023/04/29 07:26:16;;;;;;;20.13;12.02;;;10.50;99.90;;;;;;5032693;28;20045;-66
2023/04/29 07:28:43;;;;;;;17.95;11.77;;;10.70;99.90;;;;;;5015793;28;20036;-66
2023/04/29 07:31:11;;;;;;;19.00;11.18;;;10.90;99.90;;;;;;5015959;28;20097;-66
2023/04/29 07:33:37;;;;;;;17.02;10.63;;;10.90;99.90;;;;;;5033085;28;20037;-66
2023/04/29 07:36:03;;;;;;;20.65;11.75;;;10.90;99.90;;;;;;5031780;28;20513;-67
2023/04/29 07:38:29;;;;;;;17.70;10.88;;;11.00;99.90;;;;;;5031536;28;20489;-67
2023/04/29 07:40:55;;;;;;;16.00;10.57;;;11.20;99.90;;;;;;5029317;28;20170;-67
2023/04/29 07:43:21;;;;;;;20.25;10.65;;;11.20;99.90;;;;;;5009252;28;20124;-66
2023/04/29 07:45:47;;;;;;;20.67;10.48;;;11.30;99.90;;;;;;5010269;28;20120;-67
2023/04/29 07:48:13;;;;;;;20.00;10.02;;;11.30;99.90;;;;;;5027458;28;20109;-67
2023/04/29 07:50:39;;;;;;;17.88;10.30;;;11.30;99.90;;;;;;5010127;28;20431;-67
2023/04/29 07:53:05;;;;;;;16.23;9.93;;;11.40;99.90;;;;;;5012657;28;20167;-67
2023/04/29 07:55:31;;;;;;;17.95;9.60;;;11.50;99.90;;;;;;5023885;28;20482;-67
2023/04/29 07:57:58;;;;;;;17.65;9.20;;;11.60;99.90;;;;;;5010278;28;20175;-67
2023/04/29 08:00:24;;;;;;;22.33;9.15;;;11.90;99.90;;;;;;5025217;28;20037;-67
2023/04/29 08:02:54;;;;;;;16.83;9.57;;;12.20;99.90;;;;;;5012036;28;20037;-68
2023/04/29 08:05:20;;;;;;;18.45;9.32;;;12.60;99.90;;;;;;5009742;28;20078;-67
2023/04/29 08:07:50;;;;;;;13.48;8.85;;;12.70;99.90;;;;;;5024907;28;20524;-67
2023/04/29 08:10:17;;;;;;;16.88;10.13;;;12.70;99.90;;;;;;5024449;28;20041;-67
2023/04/29 08:12:46;;;;;;;14.50;9.55;;;12.70;99.90;;;;;;5009635;28;20033;-67
2023/04/29 08:15:12;;;;;;;17.00;9.98;;;12.60;99.90;;;;;;5026440;28;20649;-67
2023/04/29 08:17:38;;;;;;;13.25;8.60;;;12.60;99.90;;;;;;5026920;28;20044;-67
2023/04/29 08:20:06;;;;;;;15.93;9.23;;;12.60;99.90;;;;;;5028139;28;20029;-67
2023/04/29 08:22:32;;;;;;;28.48;9.63;;;13.10;99.90;;;;;;5024976;28;20454;-68
2023/04/29 08:24:58;;;;;;;28.25;9.55;;;13.20;99.90;;;;;;5024760;28;20045;-67
2023/04/29 08:27:24;;;;;;;12.85;8.32;;;13.40;99.90;;;;;;5021992;28;20529;-67
2023/04/29 08:29:50;;;;;;;15.63;9.32;;;13.70;99.90;;;;;;5008521;28;20714;-65
2023/04/29 08:32:16;;;;;;;17.08;10.30;;;14.10;99.90;;;;;;5025304;28;20155;-67
2023/04/29 08:34:43;;;;;;;12.98;9.20;;;14.10;99.90;;;;;;5007138;28;20163;-67
2023/04/29 08:37:09;;;;;;;13.10;8.63;;;14.30;99.90;;;;;;5008367;28;20513;-68
2023/04/29 08:39:35;;;;;;;127.93;22.55;;;14.70;99.90;;;;;;5026507;28;20036;-67
2023/04/29 08:42:10;;;;;;;24.20;10.93;;;15.40;99.90;;;;;;5026005;28;20518;-67
2023/04/29 08:44:37;;;;;;;12.80;8.35;;;16.10;99.90;;;;;;5009908;28;20049;-67
2023/04/29 08:47:04;;;;;;;12.20;8.30;;;16.20;99.90;;;;;;5024735;28;20041;-67
2023/04/29 08:49:31;;;;;;;15.32;8.40;;;16.20;99.90;;;;;;5024489;28;20124;-68
2023/04/29 08:51:57;;;;;;;14.10;8.60;;;15.70;99.90;;;;;;5042602;28;20092;-67
2023/04/29 08:54:22;;;;;;;10.02;7.60;;;14.90;99.90;;;;;;5026633;28;20584;-67
2023/04/29 08:56:50;;;;;;;13.23;7.95;;;14.90;99.90;;;;;;5043221;28;20041;-67
2023/04/29 08:59:17;;;;;;;14.18;8.25;;;14.60;99.90;;;;;;4994742;28;20463;-66
2023/04/29 09:01:49;;;;;;;12.07;8.15;;;14.50;99.90;;;;;;5027700;28;20052;-65
2023/04/29 09:04:20;;;;;;;11.68;7.88;;;15.30;99.90;;;;;;4993573;28;20041;-66
2023/04/29 09:06:47;;;;;;;11.65;7.55;;;15.80;99.90;;;;;;5025398;28;20102;-65
2023/04/29 09:09:14;;;;;;;11.43;7.03;;;16.10;99.90;;;;;;5023199;28;20071;-66
2023/04/29 09:11:40;;;;;;;11.10;7.38;;;16.50;99.90;;;;;;5024954;28;20127;-66
2023/04/29 09:14:07;;;;;;;13.15;6.85;;;16.60;99.90;;;;;;5026143;28;20048;-66
2023/04/29 09:16:34;;;;;;;10.13;7.20;;;17.00;99.90;;;;;;5026328;28;20034;-68
2023/04/29 09:19:00;;;;;;;10.90;8.15;;;17.40;99.90;;;;;;5025379;28;20045;-67
2023/04/29 09:21:32;;;;;;;9.05;6.97;;;17.50;99.90;;;;;;4977991;28;20079;-66
2023/04/29 09:23:59;;;;;;;;;;;16.70;99.20;;;;;;5005331;28;20045;-66
2023/04/29 09:26:25;;;;;;;9.57;7.00;;;16.00;99.40;;;;;;5024316;28;19920;-66
2023/04/29 09:29:10;;;;;;;14.45;7.97;;;15.90;99.90;;;;;;5022408;28;20053;-66
2023/04/29 09:31:38;;;;;;;20.85;7.88;;;16.20;99.90;;;;;;5019473;28;20037;-66
2023/04/29 09:34:04;;;;;;;160.40;19.80;;;15.90;99.90;;;;;;5023337;28;20127;-66
2023/04/29 09:36:44;;;;;;;84.85;11.60;;;16.00;99.90;;;;;;5027609;28;20045;-66
2023/04/29 09:39:11;;;;;;;10.80;8.02;;;16.00;99.90;;;;;;5024434;28;20086;-66
2023/04/29 09:41:53;;;;;;;12.18;7.90;;;15.50;99.90;;;;;;5009563;28;20584;-66
2023/04/29 09:44:23;;;;;;;10.07;7.88;;;15.70;99.90;;;;;;5025246;28;20067;-66
2023/04/29 09:47:03;;;;;;;10.15;7.50;;;16.30;99.90;;;;;;5029096;28;20111;-66
2023/04/29 09:49:36;;;;;;;17.40;8.40;;;16.70;99.90;;;;;;5029469;28;20448;-66
2023/04/29 09:52:09;;;;;;;13.05;7.85;;;16.10;99.90;;;;;;5028027;28;20044;-66
2023/04/29 09:54:37;;;;;;;9.32;7.13;;;15.50;99.90;;;;;;5011288;28;20815;-66
2023/04/29 09:57:07;;;;;;;13.20;7.32;;;15.30;99.90;;;;;;5019066;28;20041;-66
2023/04/29 09:59:35;;;;;;;10.18;6.80;;;15.80;99.90;;;;;;5009337;28;20066;-66
2023/04/29 10:02:06;;;;;;;9.75;7.28;;;16.50;99.90;;;;;;5027540;28;20048;-66
2023/04/29 10:04:33;;;;;;;10.52;7.55;;;16.80;99.90;;;;;;5025235;28;20678;-66
2023/04/29 10:07:00;;;;;;;9.20;6.75;;;17.40;99.90;;;;;;5028106;28;20064;-67
2023/04/29 10:09:27;;;;;;;21.45;7.68;;;17.80;99.50;;;;;;5012088;28;20449;-66
2023/04/29 10:11:53;;;;;;;9.32;6.78;;;18.20;99.00;;;;;;5027031;28;20248;-66
2023/04/29 10:14:23;;;;;;;11.45;7.85;;;17.60;98.10;;;;;;5045594;28;20431;-66
2023/04/29 10:16:58;;;;;;;11.45;7.25;;;17.40;98.50;;;;;;5027459;28;20116;-66
2023/04/29 10:19:54;;;;;;;50.45;10.80;;;17.40;98.70;;;;;;5028072;28;20063;-66
2023/04/29 10:22:32;;;;;;;12.40;7.38;;;17.90;99.00;;;;;;5029702;28;20104;-66
2023/04/29 10:25:00;;;;;;;74.10;14.73;;;17.60;97.30;;;;;;5027050;28;20052;-66
2023/04/29 10:27:27;;;;;;;55.78;13.75;;;17.50;97.70;;;;;;5012582;28;20072;-66
2023/04/29 10:29:55;;;;;;;12.48;6.88;;;17.30;98.30;;;;;;5010409;28;20041;-67
2023/04/29 10:32:22;;;;;;;19.65;8.05;;;16.60;97.50;;;;;;5027510;28;20095;-68
2023/04/29 10:34:51;;;;;;;12.23;7.60;;;16.20;97.90;;;;;;5031033;28;20036;-67
2023/04/29 10:37:17;;;;;;;9.57;7.05;;;15.80;98.80;;;;;;5028520;28;20135;-67
2023/04/29 10:39:53;;;;;;;10.30;7.05;;;16.10;98.80;;;;;;5012475;28;20033;-67
2023/04/29 10:42:43;;;;;;;11.75;7.13;;;16.40;97.50;;;;;;5010602;28;20040;-67
2023/04/29 10:45:21;;;;;;;56.58;30.20;;;17.00;97.50;;;;;;5011010;28;20029;-68
2023/04/29 10:48:05;;;;;;;14.02;7.18;;;17.20;97.20;;;;;;5029364;28;20905;-67
2023/04/29 10:50:32;;;;;;;12.07;7.82;;;17.40;96.20;;;;;;5026712;28;20563;-68
2023/04/29 10:53:02;;;;;;;7.80;6.93;;;17.10;97.60;;;;;;5024581;28;20355;-68
2023/04/29 10:55:28;;;;;;;11.15;7.60;;;16.70;97.70;;;;;;5042662;28;20045;-67
2023/04/29 10:57:57;;;;;;;12.80;7.40;;;16.60;97.70;;;;;;5027144;28;20123;-67
2023/04/29 11:00:27;;;;;;;9.35;7.00;;;16.30;98.30;;;;;;5008791;28;20029;-68
2023/04/29 11:02:54;;;;;;;126.05;18.33;;;15.80;97.50;;;;;;5025537;28;20051;-68
2023/04/29 11:05:34;;;;;;;10.90;7.60;;;15.80;98.60;;;;;;5024770;28;20403;-67
2023/04/29 11:08:15;;;;;;;21.23;9.65;;;16.20;99.40;;;;;;5023574;28;20041;-68
2023/04/29 11:10:44;;;;;;;13.30;7.47;;;16.00;99.20;;;;;;5009336;28;20059;-67
2023/04/29 11:13:28;;;;;;;38.78;10.95;;;16.00;99.40;;;;;;5024491;28;20084;-68
2023/04/29 11:16:04;;;;;;;18.45;8.00;;;16.20;98.90;;;;;;5008280;28;20037;-68
2023/04/29 11:18:30;;;;;;;11.20;7.60;;;16.50;99.50;;;;;;4992277;28;20037;-68
2023/04/29 11:21:05;;;;;;;10.73;7.28;;;16.40;98.70;;;;;;5008290;28;20041;-68
2023/04/29 11:23:33;;;;;;;11.93;6.80;;;16.60;99.00;;;;;;5024434;28;20048;-69
2023/04/29 11:26:00;;;;;;;12.45;7.18;;;16.90;98.90;;;;;;5007897;28;20100;-69
2023/04/29 11:28:30;;;;;;;11.52;7.00;;;17.00;97.90;;;;;;5024070;28;20045;-68
2023/04/29 11:30:57;;;;;;;11.27;6.13;;;17.10;97.70;;;;;;5025337;28;20079;-69
2023/04/29 11:33:26;;;;;;;9.18;6.35;;;17.50;98.30;;;;;;5009075;28;20644;-69
2023/04/29 11:35:56;;;;;;;10.10;6.10;;;17.20;96.20;;;;;;5023343;28;20390;-68
2023/04/29 11:38:29;;;;;;;8.70;5.82;;;16.90;96.20;;;;;;5024037;28;20037;-69
2023/04/29 11:40:57;;;;;;;10.68;6.22;;;17.10;96.60;;;;;;5021580;28;20124;-69
2023/04/29 11:43:23;;;;;;;10.20;6.00;;;17.20;96.90;;;;;;5024228;28;20044;-70
2023/04/29 11:45:53;;;;;;;7.28;5.68;;;17.30;96.20;;;;;;5008468;28;20041;-69
2023/04/29 11:48:20;;;;;;;11.52;6.55;;;17.40;96.90;;;;;;5021965;28;20060;-68
2023/04/29 11:50:47;;;;;;;10.13;6.60;;;17.30;95.70;;;;;;5021455;28;20418;-66
2023/04/29 11:53:13;;;;;;;9.10;6.20;;;17.40;96.10;;;;;;5029246;28;20407;-68
2023/04/29 11:55:44;;;;;;;9.25;6.13;;;17.40;94.90;;;;;;5010940;28;20029;-66
2023/04/29 11:58:10;;;;;;;7.90;6.00;;;17.10;94.60;;;;;;5009837;28;20044;-68
2023/04/29 12:00:37;;;;;;;42.75;8.05;;;17.10;94.80;;;;;;5006566;28;20041;-67
2023/04/29 12:03:23;;;;;;;11.70;6.07;;;17.20;96.50;;;;;;5023872;28;20130;-68
2023/04/29 12:05:56;;;;;;;11.55;6.65;;;17.30;94.70;;;;;;5019315;28;20060;-68
2023/04/29 12:08:23;;;;;;;8.50;5.72;;;17.40;93.90;;;;;;5021114;28;20533;-67
2023/04/29 12:10:49;;;;;;;10.30;6.13;;;17.50;94.30;;;;;;5021343;28;20044;-67
2023/04/29 12:13:16;;;;;;;83.95;11.75;;;17.40;93.80;;;;;;5021096;28;20041;-68
2023/04/29 12:15:46;;;;;;;8.23;4.93;;;17.50;94.30;;;;;;5022715;28;20095;-68
2023/04/29 12:18:13;;;;;;;9.73;5.75;;;17.60;94.70;;;;;;5022453;28;20084;-68
2023/04/29 12:20:40;;;;;;;14.90;5.55;;;17.70;94.80;;;;;;5021710;28;20110;-68
2023/04/29 12:23:12;;;;;;;37.05;7.93;;;17.80;94.20;;;;;;5023661;28;20037;-68
2023/04/29 12:25:40;;;;;;;6.78;5.03;;;17.80;95.20;;;;;;5024478;28;20394;-68
2023/04/29 12:28:13;;;;;;;8.43;4.93;;;17.90;94.00;;;;;;5023048;28;20406;-68
2023/04/29 12:30:40;;;;;;;14.23;6.70;;;18.00;93.50;;;;;;5022763;28;20382;-68
2023/04/29 12:33:09;;;;;;;11.15;5.75;;;18.00;93.70;;;;;;5022030;28;20049;-68
2023/04/29 12:35:38;;;;;;;8.55;5.65;;;17.80;93.10;;;;;;5025921;28;20125;-68
2023/04/29 12:38:04;;;;;;;18.52;6.47;;;17.30;93.20;;;;;;4991780;28;20153;-69
2023/04/29 12:40:32;;;;;;;13.45;6.00;;;17.10;93.40;;;;;;5023780;28;20117;-68